Time;durP1;ratioP1;P1;durP2;ratioP2;P2;SDS_P1;SDS_P2;PMS_P1;PMS_P2;Temp;Humidity;BMP_temperature;BMP_pressure;BME280_temperature;BME280_humidity;BME280_pressure;Samples;Min_cycle;Max_cycle;Signal;HPM_P1;HPM_P2
2022/03/17 00:00:09;;;;;;;17.52;15.73;;;;;;;12.97;48.87;100776.94;5031638;28;20049;-53
2022/03/17 00:02:37;;;;;;;18.73;15.10;;;;;;;13.07;48.97;100751.50;5031673;28;20478;-55
2022/03/17 00:05:08;;;;;;;17.42;14.93;;;;;;;13.16;48.62;100751.50;5031584;28;20050;-51
2022/03/17 00:07:36;;;;;;;17.60;15.50;;;;;;;13.19;48.59;100745.28;5032328;28;20471;-52
2022/03/17 00:10:04;;;;;;;17.42;15.30;;;;;;;12.97;48.91;100752.59;5031782;28;20132;-51
2022/03/17 00:12:32;;;;;;;18.65;15.73;;;;;;;13.12;48.91;100742.13;5032188;28;20053;-53
2022/03/17 00:15:00;;;;;;;18.88;15.77;;;;;;;13.11;48.68;100743.28;5031826;28;20080;-50
2022/03/17 00:17:29;;;;;;;16.35;14.40;;;;;;;13.00;48.85;100743.59;5032163;28;20383;-56
2022/03/17 00:19:56;;;;;;;18.50;16.27;;;;;;;13.06;48.87;100746.22;5031480;28;20060;-55
2022/03/17 00:22:24;;;;;;;19.15;16.25;;;;;;;13.02;48.89;100737.66;5035893;28;20049;-55
2022/03/17 00:24:51;;;;;;;18.65;15.88;;;;;;;13.16;48.94;100738.34;5035170;28;20526;-54
2022/03/17 00:27:18;;;;;;;18.33;16.33;;;;;;;13.24;48.41;100747.91;5035661;28;20056;-54
2022/03/17 00:29:46;;;;;;;18.42;15.77;;;;;;;13.06;48.83;100733.06;5035387;28;20054;-53
2022/03/17 00:32:14;;;;;;;20.88;16.90;;;;;;;13.08;49.36;100739.16;5035616;28;20060;-52
2022/03/17 00:37:25;;;;;;;17.70;15.85;;;;;;;13.16;48.65;100745.91;5035117;28;20053;-52
2022/03/17 00:39:53;;;;;;;20.58;16.80;;;;;;;13.14;49.01;100746.22;5035266;28;20068;-51
2022/03/17 00:42:22;;;;;;;19.67;17.52;;;;;;;13.07;49.24;100731.09;5035501;28;20056;-54
2022/03/17 00:44:50;;;;;;;22.23;17.80;;;;;;;13.16;49.00;100735.53;5035444;28;20053;-53
2022/03/17 00:47:17;;;;;;;21.85;16.30;;;;;;;13.08;49.30;100741.97;5035286;28;20060;-53
2022/03/17 00:49:46;;;;;;;18.98;15.98;;;;;;;13.21;48.75;100765.34;5035158;28;20045;-54
2022/03/17 00:52:14;;;;;;;18.35;15.95;;;;;;;13.29;48.39;100753.41;5035095;28;20398;-51
2022/03/17 00:54:45;;;;;;;18.67;15.45;;;;;;;13.31;48.37;100762.28;5034892;28;20072;-55
2022/03/17 00:57:15;;;;;;;19.23;15.60;;;;;;;13.18;48.72;100763.19;5034600;28;20049;-54
2022/03/17 00:59:43;;;;;;;18.23;15.30;;;;;;;13.36;48.18;100761.31;5034624;28;20410;-52
2022/03/17 01:02:10;;;;;;;17.65;15.85;;;;;;;13.46;48.25;100762.94;5034252;28;20053;-54
2022/03/17 01:04:37;;;;;;;19.75;16.63;;;;;;;13.55;47.81;100758.22;5035119;28;20410;-52
2022/03/17 01:07:06;;;;;;;17.35;15.50;;;;;;;13.44;48.43;100766.09;5034373;28;20053;-51
2022/03/17 01:09:34;;;;;;;18.05;14.57;;;;;;;13.40;48.50;100765.91;5034962;28;20076;-54
2022/03/17 01:12:01;;;;;;;18.88;15.65;;;;;;;13.44;48.23;100757.72;5034717;28;20076;-51
2022/03/17 01:14:29;;;;;;;20.27;16.50;;;;;;;13.36;48.39;100758.50;5034904;28;20050;-53
2022/03/17 01:16:56;;;;;;;18.65;15.75;;;;;;;13.35;48.00;100757.66;5034285;28;20458;-51
2022/03/17 01:19:26;;;;;;;19.42;15.77;;;;;;;13.38;48.15;100742.22;5034299;28;20054;-51
2022/03/17 01:21:53;;;;;;;18.45;15.82;;;;;;;13.43;48.13;100744.03;5034148;28;20057;-51
2022/03/17 01:24:24;;;;;;;21.17;16.58;;;;;;;13.40;48.27;100745.50;5034551;28;20414;-51
2022/03/17 01:26:52;;;;;;;19.42;16.08;;;;;;;13.37;48.70;100744.16;5034575;28;20080;-52
2022/03/17 01:29:19;;;;;;;18.63;15.65;;;;;;;13.24;48.41;100742.31;5034382;28;20065;-51
2022/03/17 01:31:47;;;;;;;17.95;14.88;;;;;;;13.29;48.75;100733.81;5033119;28;20057;-52
2022/03/17 01:34:16;;;;;;;17.38;15.55;;;;;;;13.37;48.52;100729.38;5034109;28;20064;-51
2022/03/17 01:36:43;;;;;;;19.95;16.10;;;;;;;13.20;49.08;100725.34;5034231;28;20498;-56
2022/03/17 01:39:10;;;;;;;19.25;15.88;;;;;;;13.20;48.92;100721.75;5034186;28;20054;-52
2022/03/17 01:41:39;;;;;;;17.85;15.05;;;;;;;13.10;48.71;100710.84;5034488;28;20046;-53
2022/03/17 01:44:07;;;;;;;18.75;13.75;;;;;;;13.11;49.22;100702.16;5033855;28;20086;-51
2022/03/17 01:47:26;;;;;;;21.35;15.63;;;;;;;13.06;48.96;100709.84;5034063;28;20410;-51
2022/03/17 01:49:23;;;;;;;17.45;14.48;;;;;;;13.10;48.82;100708.91;5033929;28;20057;-53
2022/03/17 01:51:50;;;;;;;20.20;16.80;;;;;;;12.93;49.13;100725.63;5034096;28;20076;-52
2022/03/17 01:54:19;;;;;;;20.20;16.75;;;;;;;12.90;48.95;100710.31;5033817;28;20057;-54
2022/03/17 01:56:48;;;;;;;18.00;15.05;;;;;;;13.03;48.89;100716.13;5033838;28;20060;-51
2022/03/17 01:59:15;;;;;;;16.65;14.85;;;;;;;13.00;48.84;100692.44;5033791;28;20057;-55
2022/03/17 02:01:44;;;;;;;17.88;15.27;;;;;;;12.99;48.84;100701.94;5033952;28;20064;-51
2022/03/17 02:04:12;;;;;;;21.13;16.63;;;;;;;12.88;49.12;100712.63;5033367;28;20053;-51
2022/03/17 02:06:39;;;;;;;18.45;16.05;;;;;;;12.95;49.16;100700.94;5033776;28;20045;-53
2022/03/17 02:09:06;;;;;;;18.92;15.45;;;;;;;13.00;49.36;100698.84;5032999;28;20514;-54
2022/03/17 02:14:23;;;;;;;18.60;15.85;;;;;;;13.10;48.71;100697.72;5039361;28;20437;-52
2022/03/17 02:16:51;;;;;;;18.70;15.95;;;;;;;13.05;48.90;100697.84;5033632;28;20060;-52
2022/03/17 02:19:18;;;;;;;18.30;15.45;;;;;;;12.89;49.58;100696.66;5033195;28;20069;-51
2022/03/17 02:21:45;;;;;;;20.48;15.27;;;;;;;12.92;49.43;100699.63;5033566;28;20057;-51
2022/03/17 02:27:01;;;;;;;18.08;15.85;;;;;;;12.88;49.89;100700.63;5037233;28;20053;-52
2022/03/17 02:29:30;;;;;;;18.92;15.52;;;;;;;12.88;49.70;100690.25;5033116;28;20056;-52
2022/03/17 02:31:58;;;;;;;22.88;17.23;;;;;;;12.82;49.72;100690.72;5032832;28;20053;-53
2022/03/17 02:34:25;;;;;;;19.42;15.63;;;;;;;12.98;49.60;100684.34;5032937;28;20057;-51
2022/03/17 02:36:54;;;;;;;21.48;16.73;;;;;;;12.84;49.39;100682.84;5032855;28;20060;-52
2022/03/17 02:39:23;;;;;;;21.13;17.23;;;;;;;12.86;49.47;100689.75;5032924;28;20502;-54
2022/03/17 02:41:50;;;;;;;22.33;15.95;;;;;;;12.99;49.22;100691.59;5032964;28;20060;-54
2022/03/17 02:44:17;;;;;;;23.73;16.92;;;;;;;12.91;49.62;100699.94;5032512;28;20068;-50
2022/03/17 02:46:45;;;;;;;19.95;16.63;;;;;;;12.81;49.72;100701.09;5033162;28;20060;-51
2022/03/17 02:49:15;;;;;;;19.63;17.15;;;;;;;12.93;49.41;100694.88;5032477;28;20045;-51
2022/03/17 02:51:43;;;;;;;19.20;15.90;;;;;;;12.95;49.42;100703.75;5032911;28;20064;-52
2022/03/17 02:54:10;;;;;;;22.38;17.70;;;;;;;13.01;49.26;100699.66;5032426;28;20065;-50
2022/03/17 02:56:39;;;;;;;20.58;16.17;;;;;;;13.11;49.15;100698.53;5032331;28;20057;-52
2022/03/17 02:59:06;;;;;;;19.58;16.90;;;;;;;13.00;48.99;100712.81;5032429;28;20054;-50
2022/03/17 03:01:34;;;;;;;19.67;16.27;;;;;;;13.16;48.66;100715.16;5032547;28;20049;-54
2022/03/17 03:04:01;;;;;;;18.52;16.52;;;;;;;13.19;48.89;100700.53;5032521;28;20411;-55
2022/03/17 03:06:28;;;;;;;19.75;16.77;;;;;;;13.13;49.08;100713.03;5032759;28;20502;-53
2022/03/17 03:08:55;;;;;;;19.92;17.10;;;;;;;13.11;49.18;100709.72;5032613;28;20054;-50
2022/03/17 03:11:23;;;;;;;20.77;17.33;;;;;;;13.00;49.25;100712.81;5032027;28;20056;-53
2022/03/17 03:13:52;;;;;;;20.13;17.15;;;;;;;13.06;49.34;100721.88;5032325;28;20561;-52
2022/03/17 03:16:19;;;;;;;19.47;17.03;;;;;;;12.99;49.43;100708.38;5032663;28;20050;-54
2022/03/17 03:18:46;;;;;;;20.33;18.13;;;;;;;13.03;49.00;100713.31;5032453;28;20057;-51
2022/03/17 03:21:14;;;;;;;20.60;17.25;;;;;;;12.97;49.48;100716.25;5032172;28;20053;-50
2022/03/17 03:23:41;;;;;;;20.02;17.13;;;;;;;13.12;49.26;100723.38;5032342;28;20060;-54
2022/03/17 03:26:09;;;;;;;19.70;17.52;;;;;;;13.13;49.25;100715.81;5031796;28;20053;-50
2022/03/17 03:28:36;;;;;;;19.98;17.13;;;;;;;13.12;49.25;100734.56;5032158;28;20055;-52
2022/03/17 03:31:06;;;;;;;21.30;17.65;;;;;;;13.18;49.35;100732.44;5031958;28;20379;-50
2022/03/17 03:33:33;;;;;;;20.58;16.95;;;;;;;13.09;49.55;100740.00;5032436;28;20053;-55
2022/03/17 03:38:46;;;;;;;19.95;17.73;;;;;;;12.98;49.68;100734.69;5038043;28;20067;-52
2022/03/17 03:41:15;;;;;;;22.27;18.90;;;;;;;13.03;49.66;100744.09;5031890;28;20061;-51
2022/03/17 03:43:43;;;;;;;20.52;17.60;;;;;;;12.96;50.08;100753.75;5032136;28;20080;-52
2022/03/17 03:46:12;;;;;;;21.50;18.13;;;;;;;13.09;49.36;100745.59;5031852;28;20068;-52
2022/03/17 03:48:39;;;;;;;19.80;17.70;;;;;;;13.06;49.84;100749.00;5031970;28;20144;-51
2022/03/17 03:51:07;;;;;;;21.10;18.45;;;;;;;13.07;49.80;100748.69;5031926;28;20045;-54
2022/03/17 03:56:15;;;;;;;20.92;18.00;;;;;;;12.92;50.38;100761.16;5033360;28;20057;-53
2022/03/17 03:58:43;;;;;;;21.13;17.65;;;;;;;12.94;50.27;100764.44;5035915;28;20088;-51
2022/03/17 04:01:11;;;;;;;19.60;17.52;;;;;;;13.02;49.71;100773.19;5035674;28;20138;-53
2022/03/17 04:03:42;;;;;;;23.27;19.02;;;;;;;13.02;49.68;100775.97;5035962;28;20049;-51
2022/03/17 04:06:09;;;;;;;23.00;18.35;;;;;;;13.08;50.12;100775.53;5035644;28;20053;-54
2022/03/17 04:08:37;;;;;;;22.15;18.48;;;;;;;13.02;50.38;100778.78;5035790;28;20054;-56
2022/03/17 04:11:04;;;;;;;22.38;19.30;;;;;;;12.96;50.29;100776.13;5035532;28;20057;-51
2022/03/17 04:13:31;;;;;;;22.33;18.85;;;;;;;13.04;49.89;100784.88;5035968;28;20386;-52
2022/03/17 04:15:59;;;;;;;23.05;20.55;;;;;;;12.88;50.66;100776.09;5035405;28;20049;-51
2022/03/17 04:18:27;;;;;;;22.17;18.63;;;;;;;12.83;50.70;100782.66;5035208;28;20053;-51
2022/03/17 04:20:55;;;;;;;22.17;18.87;;;;;;;12.79;51.13;100781.66;5035879;28;20501;-54
2022/03/17 04:23:22;;;;;;;21.67;18.95;;;;;;;12.72;51.17;100781.28;5035303;28;20129;-52
2022/03/17 04:25:50;;;;;;;22.13;18.55;;;;;;;12.66;51.20;100776.97;5035426;28;20050;-55
2022/03/17 04:28:17;;;;;;;23.83;19.35;;;;;;;12.72;51.31;100789.66;5035423;28;20060;-55
2022/03/17 04:30:45;;;;;;;22.13;19.63;;;;;;;12.69;51.14;100788.34;5035542;28;20056;-55
2022/03/17 04:33:12;;;;;;;22.95;19.50;;;;;;;12.73;51.22;100810.91;5035635;28;20060;-56
2022/03/17 04:35:41;;;;;;;22.83;19.95;;;;;;;12.85;51.04;100804.69;5035120;28;20053;-53
2022/03/17 04:38:09;;;;;;;23.80;20.35;;;;;;;12.78;51.07;100813.53;5035373;28;20053;-53
2022/03/17 04:40:36;;;;;;;23.20;19.13;;;;;;;12.83;50.96;100810.63;5034908;28;20052;-55
2022/03/17 04:43:04;;;;;;;22.77;19.73;;;;;;;12.81;51.13;100821.28;5035178;28;20061;-51
2022/03/17 04:45:31;;;;;;;22.75;19.88;;;;;;;12.77;51.05;100828.69;5035394;28;20059;-56
2022/03/17 04:47:59;;;;;;;21.77;19.15;;;;;;;12.88;51.37;100841.22;5035488;28;20053;-53
2022/03/17 04:50:26;;;;;;;24.20;21.27;;;;;;;12.84;51.27;100831.81;5034536;28;20053;-52
2022/03/17 04:55:48;;;;;;;22.42;19.95;;;;;;;12.75;51.33;100850.53;4999915;28;20053;-54
2022/03/17 04:58:15;;;;;;;23.95;20.70;;;;;;;12.86;51.54;100849.09;5034764;28;20486;-55
2022/03/17 05:00:43;;;;;;;23.15;20.70;;;;;;;12.75;51.50;100847.72;5034763;28;20050;-51
2022/03/17 05:03:11;;;;;;;23.15;19.60;;;;;;;12.72;51.94;100851.97;5034939;28;20501;-52
2022/03/17 05:05:38;;;;;;;22.65;19.23;;;;;;;12.86;51.17;100860.28;5034855;28;20053;-52
2022/03/17 05:08:08;;;;;;;26.80;22.13;;;;;;;12.76;51.63;100860.56;5034701;28;20061;-51
2022/03/17 05:10:36;;;;;;;25.48;21.85;;;;;;;12.78;51.83;100872.25;5034869;28;20057;-52
2022/03/17 05:13:05;;;;;;;25.38;21.20;;;;;;;12.87;51.64;100873.13;5035112;28;20473;-52
2022/03/17 05:15:32;;;;;;;24.08;20.98;;;;;;;12.86;51.52;100877.06;5034378;28;20049;-51
2022/03/17 05:17:59;;;;;;;25.33;21.70;;;;;;;12.77;52.23;100879.81;5034902;28;20402;-55
2022/03/17 05:20:29;;;;;;;24.60;20.65;;;;;;;12.75;52.21;100895.25;5034306;28;20701;-55
2022/03/17 05:22:57;;;;;;;24.70;21.15;;;;;;;12.79;52.02;100899.88;5034636;28;20049;-53
2022/03/17 05:25:26;;;;;;;26.50;22.25;;;;;;;12.70;53.03;100909.34;5034431;28;20478;-54
2022/03/17 05:27:53;;;;;;;24.70;21.55;;;;;;;12.65;52.79;100901.09;5034501;28;20053;-53
2022/03/17 05:30:20;;;;;;;25.42;21.30;;;;;;;12.71;53.23;100903.44;5033945;28;20429;-50
2022/03/17 05:32:48;;;;;;;24.33;21.67;;;;;;;12.61;53.40;100908.47;5034563;28;20057;-52
2022/03/17 05:35:17;;;;;;;24.50;21.60;;;;;;;12.69;53.80;100908.53;5033695;28;20049;-53
2022/03/17 05:37:45;;;;;;;24.88;21.98;;;;;;;12.60;54.24;100916.03;5034303;28;20049;-52
2022/03/17 05:40:17;;;;;;;24.13;21.20;;;;;;;12.49;55.10;100923.81;5033921;28;20068;-51
2022/03/17 05:42:47;;;;;;;28.02;22.15;;;;;;;12.54;55.41;100926.50;5034248;28;20072;-54
2022/03/17 05:45:16;;;;;;;25.08;22.00;;;;;;;12.57;55.61;100934.22;5034171;28;20486;-50
2022/03/17 05:47:45;;;;;;;30.65;23.10;;;;;;;12.44;55.82;100942.69;5034160;28;20049;-54
2022/03/17 05:50:15;;;;;;;27.88;23.75;;;;;;;12.36;57.26;100941.47;5033759;28;20058;-52
2022/03/17 05:52:44;;;;;;;28.42;24.55;;;;;;;12.23;58.65;100942.34;5034430;28;20053;-51
2022/03/17 05:55:13;;;;;;;27.23;24.20;;;;;;;12.15;59.03;100932.72;5033493;28;20053;-51
2022/03/17 05:57:41;;;;;;;31.45;24.02;;;;;;;12.16;59.21;100951.16;5033763;28;20064;-52
2022/03/17 06:00:12;;;;;;;27.13;23.95;;;;;;;12.08;59.67;100963.06;5033843;28;20400;-50
2022/03/17 06:02:40;;;;;;;28.83;25.02;;;;;;;11.95;60.61;100965.53;5033735;28;20053;-53
2022/03/17 06:05:09;;;;;;;29.98;25.77;;;;;;;12.05;61.58;100977.63;5033365;28;20498;-51
2022/03/17 06:07:37;;;;;;;28.92;24.88;;;;;;;12.03;61.36;100979.91;5033916;28;20072;-50
2022/03/17 06:10:06;;;;;;;30.80;24.67;;;;;;;11.96;61.11;100994.28;5033736;28;20060;-52
2022/03/17 06:12:35;;;;;;;28.00;25.05;;;;;;;11.89;62.27;100996.66;5033708;28;20050;-52
2022/03/17 06:15:04;;;;;;;31.25;27.00;;;;;;;11.97;63.13;100990.38;5033417;28;20045;-50
2022/03/17 06:17:40;;;;;;;31.95;25.30;;;;;;;12.08;62.46;100988.19;5033271;28;20050;-50
2022/03/17 06:20:09;;;;;;;30.13;26.10;;;;;;;12.12;61.70;100998.41;5032621;28;20087;-50
2022/03/17 06:22:39;;;;;;;32.00;26.75;;;;;;;12.16;62.30;101004.22;5033751;28;20398;-52
2022/03/17 06:25:08;;;;;;;33.28;26.95;;;;;;;12.12;62.01;101009.56;5033435;28;20057;-52
2022/03/17 06:27:36;;;;;;;29.23;25.17;;;;;;;12.18;62.20;101030.69;5033069;28;20049;-51
2022/03/17 06:30:05;;;;;;;32.72;27.05;;;;;;;12.18;63.07;101027.06;5033382;28;20053;-50
2022/03/17 06:32:33;;;;;;;33.00;26.75;;;;;;;12.18;63.22;101030.69;5033095;28;20049;-51
2022/03/17 06:35:02;;;;;;;30.38;26.60;;;;;;;12.21;62.66;101042.34;5033234;28;20061;-51
2022/03/17 06:37:30;;;;;;;29.38;25.88;;;;;;;12.22;63.39;101047.66;5032951;28;20478;-51
2022/03/17 06:39:57;;;;;;;31.75;27.95;;;;;;;12.26;64.26;101053.41;5033091;28;20486;-52
2022/03/17 06:42:24;;;;;;;32.08;27.45;;;;;;;12.29;63.66;101063.97;5032683;28;20049;-53
2022/03/17 06:44:52;;;;;;;32.58;28.88;;;;;;;12.28;64.24;101067.91;5033017;28;20410;-53
2022/03/17 06:47:19;;;;;;;34.30;29.13;;;;;;;12.25;65.09;101082.50;5032680;28;20061;-53
2022/03/17 06:49:46;;;;;;;37.75;31.98;;;;;;;12.16;66.21;101077.63;5032639;28;20086;-51
2022/03/17 06:52:15;;;;;;;33.58;29.02;;;;;;;12.17;66.42;101084.03;5032815;28;20045;-50
2022/03/17 06:54:42;;;;;;;37.78;30.85;;;;;;;12.12;67.04;101098.94;5032876;28;20428;-53
2022/03/17 06:57:10;;;;;;;36.17;30.75;;;;;;;12.09;67.29;101102.34;5032573;28;20065;-50
2022/03/17 06:59:37;;;;;;;36.88;29.83;;;;;;;12.04;67.81;101105.25;5032735;28;20058;-50
2022/03/17 07:02:05;;;;;;;38.55;32.67;;;;;;;12.03;68.31;101117.53;5032389;28;20405;-50
2022/03/17 07:04:32;;;;;;;34.47;28.90;;;;;;;12.10;68.06;101114.34;5031851;28;20053;-53
2022/03/17 07:06:59;;;;;;;36.38;30.63;;;;;;;12.06;68.44;101116.09;5032836;28;20053;-52
2022/03/17 07:09:28;;;;;;;34.35;28.52;;;;;;;11.94;69.33;101113.81;5032842;28;20064;-50
2022/03/17 07:11:55;;;;;;;32.60;27.90;;;;;;;11.98;69.16;101123.22;5033156;28;20053;-51
2022/03/17 07:14:23;;;;;;;33.28;27.95;;;;;;;12.01;69.49;101131.00;5032069;28;20049;-55
2022/03/17 07:16:50;;;;;;;37.75;29.70;;;;;;;12.06;69.85;101138.44;5032612;28;20050;-53
2022/03/17 07:19:17;;;;;;;36.55;28.83;;;;;;;12.14;70.23;101140.53;5032356;28;20049;-51
2022/03/17 07:21:45;;;;;;;32.10;26.17;;;;;;;12.22;70.30;101139.81;5032517;28;20049;-55
2022/03/17 07:24:12;;;;;;;34.70;28.92;;;;;;;12.28;69.69;101149.72;5032450;28;20056;-53
2022/03/17 07:26:41;;;;;;;35.30;30.42;;;;;;;12.35;69.94;101152.94;5032558;28;20056;-52
2022/03/17 07:29:08;;;;;;;41.07;32.83;;;;;;;12.38;70.47;101169.06;5032283;28;20422;-54
2022/03/17 07:31:36;;;;;;;37.42;31.05;;;;;;;12.45;70.57;101160.31;5031228;28;20065;-51
2022/03/17 07:34:03;;;;;;;39.28;32.55;;;;;;;12.54;70.04;101171.59;5032420;28;20383;-50
2022/03/17 07:36:30;;;;;;;38.50;30.10;;;;;;;12.53;70.36;101184.72;5031904;28;20053;-50
2022/03/17 07:38:58;;;;;;;34.15;26.65;;;;;;;12.47;70.32;101188.75;5032278;28;20060;-54
2022/03/17 07:41:26;;;;;;;28.13;22.95;;;;;;;12.38;70.07;101201.78;5032122;28;20049;-53
2022/03/17 07:43:55;;;;;;;22.08;18.25;;;;;;;12.34;69.31;101206.34;5032341;28;20050;-50
2022/03/17 07:46:23;;;;;;;19.73;15.77;;;;;;;12.23;69.46;101216.03;5031914;28;20490;-51
2022/03/17 07:48:50;;;;;;;17.05;14.88;;;;;;;12.16;69.60;101222.03;5031961;28;20057;-51
2022/03/17 07:51:19;;;;;;;19.15;16.35;;;;;;;12.09;69.79;101228.00;5031307;28;20053;-54
2022/03/17 07:53:47;;;;;;;17.45;15.18;;;;;;;12.03;69.94;101233.97;5032402;28;20056;-50
2022/03/17 07:56:15;;;;;;;18.08;15.20;;;;;;;11.97;69.69;101253.63;5031738;28;20506;-52
2022/03/17 07:58:42;;;;;;;17.38;14.75;;;;;;;11.96;69.61;101259.50;5031798;28;20065;-53
2022/03/17 08:01:12;;;;;;;21.30;16.30;;;;;;;11.81;69.75;101254.97;5031929;28;20056;-50
2022/03/17 08:03:40;;;;;;;21.92;17.50;;;;;;;11.81;69.70;101260.56;5031768;28;20054;-51
2022/03/17 08:06:08;;;;;;;19.35;15.60;;;;;;;11.67;70.06;101268.84;5031542;28;20076;-53
2022/03/17 08:08:35;;;;;;;22.25;16.20;;;;;;;11.69;69.95;101263.78;5031824;28;20050;-51
2022/03/17 08:11:02;;;;;;;17.92;15.40;;;;;;;11.65;70.03;101276.69;5032006;28;20054;-53
2022/03/17 08:13:30;;;;;;;20.70;17.35;;;;;;;11.63;70.20;101284.53;5031692;28;20060;-53
2022/03/17 08:16:20;;;;;;;20.40;16.20;;;;;;;11.61;69.72;101291.56;5032106;28;20383;-51
2022/03/17 08:18:49;;;;;;;20.15;17.17;;;;;;;11.57;70.14;101288.56;5032472;28;20509;-55
2022/03/17 08:21:17;;;;;;;17.50;14.67;;;;;;;11.55;69.38;101304.78;5031650;28;20053;-51
2022/03/17 08:23:45;;;;;;;15.55;13.65;;;;;;;11.50;69.66;101313.19;5031783;28;20480;-50
2022/03/17 08:26:13;;;;;;;17.45;14.68;;;;;;;11.49;69.66;101326.31;5031653;28;20061;-53
2022/03/17 08:28:40;;;;;;;16.05;12.52;;;;;;;11.37;69.47;101340.69;5031302;28;20072;-49
2022/03/17 08:31:07;;;;;;;14.18;10.00;;;;;;;11.36;68.24;101335.44;5031848;28;20053;-54
2022/03/17 08:33:36;;;;;;;12.88;9.85;;;;;;;11.37;67.48;101340.69;5031288;28;20056;-50
2022/03/17 08:36:05;;;;;;;11.90;9.23;;;;;;;11.35;66.77;101347.69;5031921;28;20201;-53
2022/03/17 08:38:32;;;;;;;12.98;8.60;;;;;;;11.36;66.56;101358.56;5031158;28;20375;-51
2022/03/17 08:41:00;;;;;;;12.35;9.23;;;;;;;11.30;65.24;101367.31;5031727;28;20060;-52
2022/03/17 08:43:27;;;;;;;12.07;9.57;;;;;;;11.23;65.57;101378.78;5034922;28;20045;-49
2022/03/17 08:51:29;;;;;;;13.32;11.57;;;;;;;11.09;66.18;101400.16;5009795;28;20406;-55
2022/03/17 08:53:57;;;;;;;12.40;10.88;;;;;;;11.10;65.63;101408.22;5035060;28;20056;-55
2022/03/17 08:56:24;;;;;;;16.00;10.70;;;;;;;11.10;65.37;101404.59;5034678;28;20061;-53
2022/03/17 08:58:55;;;;;;;12.32;9.50;;;;;;;11.23;65.12;101409.47;5035122;28;20057;-53
2022/03/17 09:01:22;;;;;;;14.02;9.85;;;;;;;11.11;65.44;101409.06;5034349;28;20057;-50
2022/03/17 09:03:52;;;;;;;11.98;8.55;;;;;;;11.21;65.08;101413.69;5034980;28;20053;-56
2022/03/17 09:06:20;;;;;;;12.38;8.43;;;;;;;11.24;64.68;101418.69;5034700;28;20073;-53
2022/03/17 09:08:48;;;;;;;13.15;8.50;;;;;;;11.23;64.77;101425.38;5039291;28;20057;-54
2022/03/17 09:11:15;;;;;;;10.63;7.60;;;;;;;11.26;63.99;101435.97;5034923;28;20061;-54
2022/03/17 09:13:43;;;;;;;11.50;8.48;;;;;;;11.30;64.36;101440.66;5034388;28;20064;-52
2022/03/17 09:16:10;;;;;;;10.52;7.22;;;;;;;11.29;64.23;101443.72;5034737;28;20080;-52
2022/03/17 09:18:37;;;;;;;9.68;6.65;;;;;;;11.29;63.96;101452.91;5034588;28;20076;-54
2022/03/17 09:21:07;;;;;;;9.75;7.13;;;;;;;11.29;63.04;101455.69;5034794;28;20429;-51
2022/03/17 09:23:34;;;;;;;10.02;6.63;;;;;;;11.27;62.58;101462.72;5034615;28;20053;-55
2022/03/17 09:26:01;;;;;;;11.70;6.70;;;;;;;11.31;62.75;101475.75;5034630;28;20057;-54
2022/03/17 09:28:29;;;;;;;12.95;7.38;;;;;;;11.22;62.84;101471.97;5034236;28;20053;-55
2022/03/17 09:30:56;;;;;;;10.27;6.40;;;;;;;11.23;62.11;101473.63;5034202;28;20064;-52
2022/03/17 09:33:25;;;;;;;8.93;6.47;;;;;;;11.21;61.27;101484.22;5033645;28;20053;-51
2022/03/17 09:35:53;;;;;;;10.40;7.03;;;;;;;11.19;61.46;101489.25;5034162;28;20053;-56
2022/03/17 09:38:22;;;;;;;9.90;7.65;;;;;;;11.18;62.01;101487.63;5034334;28;20068;-52
2022/03/17 09:40:49;;;;;;;8.70;7.23;;;;;;;11.14;61.15;101489.34;5034437;28;20058;-54
2022/03/17 09:43:21;;;;;;;9.02;6.60;;;;;;;11.15;61.10;101491.00;5034109;28;20064;-52
2022/03/17 09:45:51;;;;;;;7.95;6.28;;;;;;;11.21;61.01;101498.16;5034151;28;20058;-53
2022/03/17 09:48:19;;;;;;;;;;;;;;;11.23;60.31;101504.28;5034485;28;20056;-55
2022/03/17 09:50:47;;;;;;;9.35;7.07;;;;;;;11.18;60.75;101507.13;5033679;28;19928;-52
2022/03/17 09:53:15;;;;;;;8.32;7.32;;;;;;;11.19;61.00;101511.56;5033064;28;20056;-50
2022/03/17 09:55:44;;;;;;;7.47;6.65;;;;;;;11.17;60.97;101513.81;5033668;28;20045;-55
2022/03/17 09:58:12;;;;;;;10.40;6.75;;;;;;;11.12;60.70;101520.28;5033339;28;20506;-52
2022/03/17 10:00:53;;;;;;;9.07;7.13;;;;;;;11.17;60.45;101525.84;5033532;28;20053;-55
2022/03/17 10:03:22;;;;;;;8.30;6.10;;;;;;;11.26;60.28;101526.03;5033498;28;20395;-54
2022/03/17 10:05:51;;;;;;;8.52;7.10;;;;;;;11.29;60.86;101533.78;5033941;28;20049;-54
2022/03/17 10:08:20;;;;;;;9.40;7.30;;;;;;;11.34;60.73;101533.75;5033730;28;20045;-50
2022/03/17 10:10:52;;;;;;;10.80;7.13;;;;;;;11.42;60.45;101526.69;5033610;28;20053;-52
2022/03/17 10:13:21;;;;;;;9.18;6.85;;;;;;;11.46;60.49;101538.09;5033878;28;20057;-54
2022/03/17 10:16:07;;;;;;;9.43;6.40;;;;;;;11.57;59.59;101536.91;5033591;28;20050;-53
2022/03/17 10:18:37;;;;;;;6.90;6.10;;;;;;;11.61;59.77;101545.50;5033114;28;20057;-52
2022/03/17 10:21:09;;;;;;;7.32;6.13;;;;;;;11.67;60.37;101549.88;5033647;28;20053;-53
2022/03/17 10:23:45;;;;;;;8.13;5.82;;;;;;;11.71;59.45;101551.78;5033347;28;20112;-54
2022/03/17 10:26:31;;;;;;;8.00;6.15;;;;;;;11.72;58.42;101559.06;5033466;28;20072;-56
2022/03/17 10:29:05;;;;;;;6.82;5.38;;;;;;;11.72;58.99;101559.06;5033456;28;20057;-52
2022/03/17 10:31:33;;;;;;;7.97;5.75;;;;;;;11.74;59.61;101558.75;5032825;28;20064;-56
2022/03/17 10:34:04;;;;;;;12.48;6.60;;;;;;;11.75;58.98;101564.03;5032934;28;20060;-49
2022/03/17 10:36:32;;;;;;;7.43;5.68;;;;;;;11.79;59.38;101575.44;5032516;28;20060;-51
2022/03/17 10:38:59;;;;;;;8.70;5.38;;;;;;;11.84;59.42;101577.34;5033121;28;20060;-48
2022/03/17 10:41:40;;;;;;;8.77;4.80;;;;;;;11.88;59.14;101587.66;5032890;28;20061;-51
2022/03/17 10:44:12;;;;;;;7.00;5.40;;;;;;;11.86;59.10;101589.88;5032801;28;20049;-52
2022/03/17 10:46:39;;;;;;;8.15;4.90;;;;;;;11.84;58.72;101599.66;5032751;28;20429;-53
2022/03/17 10:49:08;;;;;;;8.45;5.25;;;;;;;11.88;58.58;101598.81;5033228;28;20052;-53
2022/03/17 10:51:37;;;;;;;7.18;5.35;;;;;;;11.87;58.72;101597.13;5032805;28;20071;-53
2022/03/17 10:54:06;;;;;;;11.40;5.82;;;;;;;11.91;58.35;101605.78;5032689;28;20049;-51
2022/03/17 10:56:38;;;;;;;9.00;6.20;;;;;;;11.84;58.45;101610.84;5032428;28;20054;-52
2022/03/17 10:59:07;;;;;;;9.13;6.97;;;;;;;11.86;58.32;101615.00;5032717;28;20054;-52
2022/03/17 11:01:39;;;;;;;10.13;6.10;;;;;;;11.91;58.09;101617.78;5032177;28;20512;-50
2022/03/17 11:04:07;;;;;;;11.45;7.40;;;;;;;11.91;58.20;101616.97;5032719;28;20049;-53
2022/03/17 11:06:35;;;;;;;9.70;7.10;;;;;;;11.87;58.64;101619.47;5032422;28;20053;-52
2022/03/17 11:09:02;;;;;;;10.13;7.00;;;;;;;11.95;58.66;101627.22;5032632;28;20053;-55
2022/03/17 11:11:31;;;;;;;9.43;7.25;;;;;;;12.00;58.26;101619.94;5032388;28;20056;-51
2022/03/17 11:14:00;;;;;;;10.50;7.80;;;;;;;12.12;58.22;101621.19;5032730;28;20049;-54
2022/03/17 11:16:34;;;;;;;12.35;7.97;;;;;;;12.18;57.64;101633.13;5032727;28;20387;-54
2022/03/17 11:19:04;;;;;;;11.52;9.30;;;;;;;12.17;57.54;101640.66;5032408;28;20064;-53
2022/03/17 11:21:32;;;;;;;8.77;7.70;;;;;;;12.21;57.64;101643.72;5031998;28;20449;-51
2022/03/17 11:24:04;;;;;;;9.30;8.07;;;;;;;12.26;57.56;101645.59;5032412;28;20053;-53
2022/03/17 11:26:35;;;;;;;10.93;7.45;;;;;;;12.31;57.96;101649.19;5031971;28;20053;-52
2022/03/17 11:29:07;;;;;;;8.95;7.80;;;;;;;12.38;58.04;101646.84;5032413;28;20045;-54
2022/03/17 11:31:58;;;;;;;9.05;7.22;;;;;;;12.46;57.78;101655.72;5032073;28;20053;-55
2022/03/17 11:34:38;;;;;;;8.98;7.30;;;;;;;12.44;57.65;101644.00;5032260;28;20046;-53
2022/03/17 11:37:15;;;;;;;10.35;7.15;;;;;;;12.48;57.51;101661.84;5032467;28;20060;-52
2022/03/17 11:39:53;;;;;;;10.13;5.13;;;;;;;12.48;56.30;101662.66;5032881;28;20065;-51